createdAt,value
2023-01-11T00:01:36.023Z,59.91
2023-01-11T00:04:02.267Z,59.89
2023-01-11T00:06:28.545Z,59.82
2023-01-11T00:08:54.837Z,59.58
2023-01-11T00:11:21.082Z,60.08
2023-01-11T00:13:47.353Z,60.00
2023-01-11T00:16:13.666Z,59.91
2023-01-11T00:18:39.957Z,59.94
2023-01-11T00:21:06.233Z,59.58
2023-01-11T00:23:32.483Z,59.48
2023-01-11T00:25:58.745Z,59.87
2023-01-11T00:28:24.986Z,59.85
2023-01-11T00:30:51.258Z,59.28
2023-01-11T00:33:17.528Z,59.45
2023-01-11T00:35:43.780Z,59.30
2023-01-11T00:38:10.044Z,60.11
2023-01-11T00:40:36.306Z,60.05
2023-01-11T00:43:02.542Z,59.48
2023-01-11T00:45:28.801Z,59.91
2023-01-11T00:47:55.070Z,60.36
2023-01-11T00:50:21.334Z,60.05
2023-01-11T00:52:47.596Z,60.03
2023-01-11T00:55:13.853Z,59.74
2023-01-11T00:57:40.132Z,59.13
2023-01-11T01:00:06.417Z,59.14
2023-01-11T01:02:32.694Z,58.71
2023-01-11T01:04:58.976Z,59.15
2023-01-11T01:07:25.232Z,59.34
2023-01-11T01:09:51.498Z,59.36
2023-01-11T01:12:17.784Z,59.23
2023-01-11T01:14:44.049Z,58.80
2023-01-11T01:17:10.287Z,59.24
2023-01-11T01:19:36.587Z,59.13
2023-01-11T01:22:02.842Z,59.44
2023-01-11T01:24:29.100Z,59.70
2023-01-11T01:26:55.338Z,59.23
2023-01-11T01:29:21.596Z,58.97
2023-01-11T01:31:47.848Z,59.57
2023-01-11T01:34:14.099Z,59.52
2023-01-11T01:36:40.347Z,59.39
2023-01-11T01:39:06.598Z,60.04
2023-01-11T01:41:32.867Z,59.37
2023-01-11T01:43:59.116Z,59.67
2023-01-11T01:46:25.493Z,59.30
2023-01-11T01:48:51.787Z,59.69
2023-01-11T01:51:18.040Z,60.55
2023-01-11T01:53:44.287Z,60.13
2023-01-11T01:56:10.527Z,60.44
2023-01-11T01:58:36.760Z,60.27
2023-01-11T02:01:03.006Z,59.89
2023-01-11T02:03:29.293Z,60.13
2023-01-11T02:05:55.560Z,60.09
2023-01-11T02:08:21.853Z,60.20
2023-01-11T02:10:48.119Z,60.38
2023-01-11T02:13:14.420Z,60.22
2023-01-11T02:15:40.733Z,60.17
2023-01-11T02:18:07.017Z,60.10
2023-01-11T02:20:33.265Z,60.16
2023-01-11T02:22:59.497Z,59.87
2023-01-11T02:25:25.736Z,60.20
2023-01-11T02:27:52.004Z,59.82
2023-01-11T02:30:18.259Z,59.44
2023-01-11T02:32:44.523Z,60.32
2023-01-11T02:35:10.797Z,59.67
2023-01-11T02:37:37.056Z,59.52
2023-01-11T02:40:03.307Z,59.38
2023-01-11T02:42:29.550Z,59.12
2023-01-11T02:44:55.812Z,59.32
2023-01-11T02:47:22.065Z,59.68
2023-01-11T02:49:48.325Z,60.12
2023-01-11T02:52:14.585Z,59.68
2023-01-11T02:54:40.849Z,59.63
2023-01-11T02:57:07.125Z,59.82
2023-01-11T02:59:33.378Z,59.77
2023-01-11T03:01:59.727Z,61.27
2023-01-11T03:04:26.059Z,61.37
2023-01-11T03:06:52.393Z,61.35
2023-01-11T03:09:18.696Z,61.59
2023-01-11T03:11:44.945Z,61.68
2023-01-11T03:14:11.215Z,61.98
2023-01-11T03:16:37.492Z,61.37
2023-01-11T03:19:03.745Z,61.86
2023-01-11T03:21:30.013Z,61.82
2023-01-11T03:23:56.341Z,61.43
2023-01-11T03:26:22.578Z,61.04
2023-01-11T03:28:48.816Z,60.70
2023-01-11T03:31:15.091Z,60.02
2023-01-11T03:33:41.347Z,60.49
2023-01-11T03:36:07.576Z,60.91
2023-01-11T03:38:33.812Z,61.52
2023-01-11T03:41:00.086Z,61.48
2023-01-11T03:43:26.330Z,61.24
2023-01-11T03:45:52.571Z,61.33
2023-01-11T03:48:18.814Z,60.91
2023-01-11T03:50:45.084Z,60.73
2023-01-11T03:53:11.343Z,61.13
2023-01-11T03:55:37.612Z,60.86
2023-01-11T03:58:03.851Z,60.68
2023-01-11T04:00:30.152Z,61.04
2023-01-11T04:02:56.422Z,61.33
2023-01-11T04:05:22.656Z,61.21
2023-01-11T04:07:48.918Z,61.79
2023-01-11T04:10:15.203Z,61.45
2023-01-11T04:12:41.457Z,61.31
2023-01-11T04:15:07.711Z,61.07
2023-01-11T04:17:33.965Z,61.25
2023-01-11T04:20:00.227Z,61.12
2023-01-11T04:22:26.487Z,61.40
2023-01-11T04:24:52.736Z,61.44
2023-01-11T04:27:18.985Z,62.08
2023-01-11T04:29:45.248Z,61.77
2023-01-11T04:32:11.618Z,61.45
2023-01-11T04:34:37.868Z,60.65
2023-01-11T04:37:04.104Z,60.15
2023-01-11T04:39:30.379Z,60.24
2023-01-11T04:41:56.637Z,59.83
2023-01-11T04:44:22.892Z,60.06
2023-01-11T04:46:49.151Z,60.35
2023-01-11T04:49:15.407Z,60.57
2023-01-11T04:51:41.652Z,60.95
2023-01-11T04:54:07.911Z,60.64
2023-01-11T04:56:34.170Z,60.40
2023-01-11T04:59:00.430Z,60.30
2023-01-11T05:01:26.720Z,59.91
2023-01-11T05:03:53.028Z,59.89
2023-01-11T05:06:19.298Z,59.82
2023-01-11T05:08:45.549Z,59.98
2023-01-11T05:11:11.802Z,60.08
2023-01-11T05:13:38.066Z,60.32
2023-01-11T05:16:04.360Z,61.17
2023-01-11T05:18:30.630Z,61.30
2023-01-11T05:20:56.897Z,61.16
2023-01-11T05:23:23.185Z,61.24
2023-01-11T05:25:49.448Z,60.52
2023-01-11T05:28:15.712Z,60.72
2023-01-11T05:30:41.976Z,60.62
2023-01-11T05:33:08.244Z,60.66
2023-01-11T05:35:34.481Z,60.53
2023-01-11T05:38:00.735Z,60.08
2023-01-11T05:40:26.987Z,60.34
2023-01-11T05:42:53.229Z,59.47
2023-01-11T05:45:19.466Z,59.34
2023-01-11T05:47:45.724Z,60.18
2023-01-11T05:50:11.983Z,59.57
2023-01-11T05:52:38.241Z,58.85
2023-01-11T05:55:04.513Z,58.72
2023-01-11T05:57:30.764Z,59.68
2023-01-11T05:59:57.022Z,59.48
2023-01-11T06:02:23.391Z,59.52
2023-01-11T06:04:50.010Z,59.60
2023-01-11T06:07:16.260Z,59.80
2023-01-11T06:09:42.523Z,60.24
2023-01-11T06:12:08.777Z,60.35
2023-01-11T06:14:37.120Z,60.18
2023-01-11T06:17:04.357Z,60.66
2023-01-11T06:19:30.597Z,60.23
2023-01-11T06:21:56.895Z,60.58
2023-01-11T06:24:23.157Z,60.04
2023-01-11T06:26:49.428Z,60.58
2023-01-11T06:29:15.681Z,60.51
2023-01-11T06:31:41.916Z,61.02
2023-01-11T06:34:08.169Z,60.96
2023-01-11T06:36:36.567Z,60.31
2023-01-11T06:39:02.828Z,60.77
2023-01-11T06:41:29.070Z,61.06
2023-01-11T06:43:55.326Z,61.46
2023-01-11T06:46:21.641Z,61.05
2023-01-11T06:48:47.965Z,61.22
2023-01-11T06:51:14.234Z,61.22
2023-01-11T06:53:40.479Z,60.92
2023-01-11T06:56:06.748Z,61.64
2023-01-11T06:58:33.017Z,61.38
2023-01-11T07:00:59.369Z,61.53
2023-01-11T07:03:25.697Z,60.90
2023-01-11T07:05:51.937Z,60.12
2023-01-11T07:08:18.180Z,60.09
2023-01-11T07:10:44.418Z,59.67
2023-01-11T07:13:10.657Z,60.06
2023-01-11T07:15:36.976Z,60.35
2023-01-11T07:18:03.252Z,60.09
2023-01-11T07:20:29.521Z,59.54
2023-01-11T07:22:55.790Z,60.00
2023-01-11T07:25:22.043Z,60.38
2023-01-11T07:27:48.308Z,59.91
2023-01-11T07:30:14.559Z,59.91
2023-01-11T07:32:40.808Z,60.39
2023-01-11T07:35:07.076Z,60.48
2023-01-11T07:37:33.318Z,60.85
2023-01-11T07:39:59.563Z,60.95
2023-01-11T07:42:25.823Z,60.81
2023-01-11T07:44:52.088Z,60.52
2023-01-11T07:47:18.345Z,60.64
2023-01-11T07:49:44.602Z,60.35
2023-01-11T07:52:10.845Z,60.15
2023-01-11T07:54:37.093Z,60.06
2023-01-11T07:57:03.337Z,60.33
2023-01-11T07:59:29.583Z,60.07
2023-01-11T08:01:55.832Z,60.33
2023-01-11T08:04:22.077Z,60.35
2023-01-11T08:06:48.466Z,60.52
2023-01-11T08:09:14.746Z,60.46
2023-01-11T08:11:40.986Z,60.33
2023-01-11T08:14:07.243Z,60.37
2023-01-11T08:16:33.499Z,60.30
2023-01-11T08:18:59.855Z,60.87
2023-01-11T08:21:26.128Z,60.83
2023-01-11T08:23:52.384Z,60.96
2023-01-11T08:26:18.639Z,60.88
2023-01-11T08:28:44.915Z,61.34
2023-01-11T08:31:11.206Z,61.33
2023-01-11T08:33:37.500Z,62.14
2023-01-11T08:36:03.764Z,62.47
2023-01-11T08:38:30.034Z,62.16
2023-01-11T08:40:56.275Z,61.83
2023-01-11T08:43:22.527Z,61.90
2023-01-11T08:45:48.774Z,61.60
2023-01-11T08:48:15.040Z,61.66
2023-01-11T08:50:41.281Z,61.33
2023-01-11T08:53:07.552Z,61.76
2023-01-11T08:55:33.810Z,61.18
2023-01-11T08:58:00.054Z,61.33
2023-01-11T09:00:26.326Z,60.86
2023-01-11T09:02:52.623Z,61.48
2023-01-11T09:05:18.907Z,61.34
2023-01-11T09:07:45.157Z,61.30
2023-01-11T09:10:11.429Z,61.25
2023-01-11T09:12:37.666Z,61.32
2023-01-11T09:15:03.904Z,61.24
2023-01-11T09:17:30.322Z,61.04
2023-01-11T09:19:56.600Z,60.78
2023-01-11T09:22:22.848Z,61.23
2023-01-11T09:24:49.123Z,60.77
2023-01-11T09:27:15.431Z,61.11
2023-01-11T09:29:41.711Z,61.19
2023-01-11T09:32:07.947Z,60.35
2023-01-11T09:34:34.191Z,60.35
2023-01-11T09:37:00.435Z,61.28
2023-01-11T09:39:26.700Z,60.92
2023-01-11T09:41:52.937Z,61.60
2023-01-11T09:44:19.190Z,61.50
2023-01-11T09:46:45.439Z,61.42
2023-01-11T09:49:11.711Z,61.31
2023-01-11T09:51:37.969Z,61.32
2023-01-11T09:54:04.221Z,61.51
2023-01-11T09:56:30.572Z,61.81
2023-01-11T09:58:56.817Z,61.54
2023-01-11T10:01:23.084Z,61.16
2023-01-11T10:03:49.358Z,60.86
2023-01-11T10:06:15.619Z,61.20
2023-01-11T10:18:25.525Z,61.85
2023-01-11T10:18:27.914Z,62.12
2023-01-11T10:19:46.858Z,62.20
2023-01-11T10:22:13.223Z,62.01
2023-01-11T10:24:39.491Z,61.48
2023-01-11T10:27:05.794Z,62.71
2023-01-11T10:29:32.058Z,61.83
2023-01-11T10:31:58.291Z,62.03
2023-01-11T10:34:24.546Z,62.26
2023-01-11T10:36:50.812Z,61.92
2023-01-11T10:39:17.057Z,63.21
2023-01-11T10:41:43.379Z,62.46
2023-01-11T10:44:09.637Z,62.77
2023-01-11T10:46:35.906Z,62.77
2023-01-11T10:49:02.243Z,62.41
2023-01-11T10:51:28.537Z,63.07
2023-01-11T10:53:54.780Z,62.76
2023-01-11T10:56:21.038Z,63.26
2023-01-11T10:58:47.318Z,63.30
2023-01-11T11:01:13.611Z,63.54
2023-01-11T11:03:39.851Z,63.49
2023-01-11T11:06:06.125Z,63.21
2023-01-11T11:08:32.360Z,63.10
2023-01-11T11:10:58.669Z,63.83
2023-01-11T11:13:24.917Z,63.54
2023-01-11T11:15:53.577Z,63.89
2023-01-11T11:18:19.825Z,63.75
2023-01-11T11:20:46.091Z,64.26
2023-01-11T11:23:12.349Z,64.00
2023-01-11T11:25:38.635Z,64.39
2023-01-11T11:28:04.894Z,64.21
2023-01-11T11:30:31.129Z,64.38
2023-01-11T11:32:57.458Z,64.98
2023-01-11T11:35:23.701Z,64.72
2023-01-11T11:37:49.950Z,65.29
2023-01-11T11:40:16.199Z,65.27
2023-01-11T11:42:42.472Z,65.17
2023-01-11T11:45:08.727Z,65.50
2023-01-11T11:47:35.263Z,65.92
2023-01-11T11:50:01.516Z,65.91
2023-01-11T11:52:27.777Z,66.02
2023-01-11T11:54:54.036Z,65.53
2023-01-11T11:57:20.277Z,66.17
2023-01-11T11:59:46.521Z,66.70
2023-01-11T12:02:12.775Z,67.01
2023-01-11T12:04:39.054Z,67.53
2023-01-11T12:07:05.309Z,67.18
2023-01-11T12:09:31.587Z,67.04
2023-01-11T12:11:57.883Z,67.13
2023-01-11T12:14:24.149Z,66.50
2023-01-11T12:16:50.471Z,66.57
2023-01-11T12:19:16.764Z,66.91
2023-01-11T12:21:43.005Z,66.98
2023-01-11T12:24:09.262Z,66.67
2023-01-11T12:26:35.701Z,66.59
2023-01-11T12:29:02.241Z,66.91
2023-01-11T12:31:28.489Z,67.31
2023-01-11T12:33:54.754Z,67.42
2023-01-11T12:36:21.008Z,67.37
2023-01-11T12:38:47.253Z,67.58
2023-01-11T12:41:13.537Z,67.46
2023-01-11T12:43:39.802Z,68.51
2023-01-11T12:46:06.129Z,68.47
2023-01-11T12:48:32.445Z,68.67
2023-01-11T12:50:58.713Z,68.74
2023-01-11T12:53:24.981Z,69.06
2023-01-11T12:55:51.229Z,68.32
2023-01-11T12:58:17.481Z,68.38
2023-01-11T13:00:43.732Z,68.36
2023-01-11T13:03:09.994Z,68.30
2023-01-11T13:05:36.248Z,68.63
2023-01-11T13:08:02.509Z,67.87
2023-01-11T13:10:28.771Z,68.19
2023-01-11T13:12:55.011Z,68.69
2023-01-11T13:15:21.260Z,68.08
2023-01-11T13:17:47.496Z,67.87
2023-01-11T13:20:13.841Z,67.88
2023-01-11T13:22:40.097Z,68.00
2023-01-11T13:25:06.347Z,68.17
2023-01-11T13:27:32.605Z,67.81
2023-01-11T13:29:59.007Z,68.47
2023-01-11T13:32:25.266Z,67.98
2023-01-11T13:34:51.514Z,68.16
2023-01-11T13:37:17.759Z,68.60
2023-01-11T13:39:44.012Z,68.26
2023-01-11T13:42:10.291Z,68.27
2023-01-11T13:44:37.345Z,67.83
2023-01-11T13:47:03.694Z,67.70
2023-01-11T13:49:29.938Z,68.33
2023-01-11T13:51:56.192Z,67.78
2023-01-11T13:54:22.452Z,67.99
2023-01-11T13:56:48.698Z,68.83
2023-01-11T13:59:14.948Z,68.16
2023-01-11T14:01:41.268Z,68.39
2023-01-11T14:04:07.614Z,68.54
2023-01-11T14:06:33.876Z,69.00
2023-01-11T14:09:00.169Z,68.57
2023-01-11T14:11:26.517Z,68.42
2023-01-11T14:13:52.772Z,68.89
2023-01-11T14:16:19.052Z,69.26
2023-01-11T14:18:45.324Z,69.12
2023-01-11T14:21:11.610Z,69.32
2023-01-11T14:23:37.869Z,69.32
2023-01-11T14:26:04.103Z,70.18
2023-01-11T14:28:30.359Z,70.12
2023-01-11T14:30:56.678Z,69.83
2023-01-11T14:33:22.958Z,70.69
2023-01-11T14:35:49.243Z,70.58
2023-01-11T14:38:15.507Z,70.27
2023-01-11T14:40:41.749Z,70.34
2023-01-11T14:43:08.003Z,70.50
2023-01-11T14:45:34.261Z,70.31
2023-01-11T14:48:00.509Z,70.40
2023-01-11T14:50:26.777Z,70.31
2023-01-11T14:52:53.038Z,70.60
2023-01-11T14:55:19.305Z,70.20
2023-01-11T14:57:45.544Z,70.22
2023-01-11T15:00:11.803Z,69.99
2023-01-11T15:02:38.047Z,70.21
2023-01-11T15:05:04.291Z,69.75
2023-01-11T15:07:30.568Z,69.87
2023-01-11T15:09:56.813Z,69.37
2023-01-11T15:12:23.074Z,68.82
2023-01-11T15:14:49.327Z,69.17
2023-01-11T15:17:15.593Z,69.18
2023-01-11T15:19:41.826Z,69.48
2023-01-11T15:22:08.059Z,69.20
2023-01-11T15:24:34.401Z,69.16
2023-01-11T15:27:00.733Z,68.96
2023-01-11T15:29:27.048Z,69.20
2023-01-11T15:31:53.402Z,68.84
2023-01-11T15:34:19.739Z,69.37
2023-01-11T15:36:46.004Z,69.34
2023-01-11T15:39:12.286Z,69.00
2023-01-11T15:41:38.561Z,68.88
2023-01-11T15:44:04.820Z,69.15
2023-01-11T15:46:31.144Z,68.81
2023-01-11T15:48:57.448Z,69.24
2023-01-11T15:51:23.700Z,68.78
2023-01-11T15:53:49.965Z,69.06
2023-01-11T15:56:16.254Z,68.73
2023-01-11T15:58:42.510Z,68.91
2023-01-11T16:01:08.844Z,68.43
2023-01-11T16:03:35.148Z,69.21
2023-01-11T16:06:01.425Z,68.45
2023-01-11T16:08:27.707Z,68.13
2023-01-11T16:10:53.972Z,68.12
2023-01-11T16:13:20.253Z,68.72
2023-01-11T16:15:48.652Z,68.48
2023-01-11T16:18:15.662Z,68.88
2023-01-11T16:20:41.925Z,68.82
2023-01-11T16:23:08.163Z,68.63
2023-01-11T16:25:34.422Z,68.65
2023-01-11T16:28:00.823Z,68.73
2023-01-11T16:30:27.110Z,68.82
2023-01-11T16:32:53.360Z,68.21
2023-01-11T16:35:19.619Z,68.50
2023-01-11T16:37:45.864Z,68.81
2023-01-11T16:40:12.101Z,69.28
2023-01-11T16:42:38.357Z,69.26
2023-01-11T16:45:04.618Z,69.25
2023-01-11T16:47:30.853Z,69.12
2023-01-11T16:49:57.123Z,68.86
2023-01-11T16:52:23.372Z,68.57
2023-01-11T16:54:49.625Z,67.89
2023-01-11T16:57:16.533Z,67.71
2023-01-11T16:59:42.803Z,68.02
2023-01-11T17:02:09.109Z,68.38
2023-01-11T17:04:35.393Z,68.53
2023-01-11T17:07:01.657Z,67.70
2023-01-11T17:09:27.906Z,67.86
2023-01-11T17:11:54.152Z,68.90
2023-01-11T17:14:20.487Z,68.81
2023-01-11T17:16:46.904Z,68.88
2023-01-11T17:19:13.211Z,68.53
2023-01-11T17:21:39.453Z,68.04
2023-01-11T17:24:05.711Z,68.08
2023-01-11T17:26:31.971Z,68.29
2023-01-11T17:28:58.326Z,68.71
2023-01-11T17:31:24.621Z,68.15
2023-01-11T17:33:50.936Z,68.48
2023-01-11T17:36:17.197Z,68.65
2023-01-11T17:38:43.447Z,68.79
2023-01-11T17:41:09.770Z,68.86
2023-01-11T17:43:36.032Z,68.76
2023-01-11T17:46:02.339Z,69.04
2023-01-11T17:48:28.656Z,69.29
2023-01-11T17:50:54.924Z,68.46
2023-01-11T17:53:21.204Z,68.52
2023-01-11T17:55:47.437Z,68.79
2023-01-11T17:58:13.688Z,69.05
2023-01-11T18:00:39.932Z,68.72
2023-01-11T18:03:06.183Z,68.82
2023-01-11T18:05:32.432Z,68.83
2023-01-11T18:07:58.681Z,68.63
2023-01-11T18:10:24.932Z,68.26
2023-01-11T18:12:51.177Z,68.45
2023-01-11T18:15:17.441Z,68.99
2023-01-11T18:17:43.707Z,68.87
2023-01-11T18:20:09.957Z,69.51
2023-01-11T18:22:36.208Z,68.95
2023-01-11T18:25:02.447Z,68.99
2023-01-11T18:27:28.721Z,69.06
2023-01-11T18:29:55.039Z,68.57
2023-01-11T18:32:21.329Z,69.46
2023-01-11T18:34:47.586Z,69.27
2023-01-11T18:37:13.875Z,69.47
2023-01-11T18:39:40.120Z,69.17
2023-01-11T18:42:06.398Z,68.77
2023-01-11T18:44:32.651Z,69.11
2023-01-11T18:46:58.912Z,68.68
2023-01-11T18:49:25.169Z,68.59
2023-01-11T18:51:51.417Z,68.34
2023-01-11T18:54:17.665Z,68.07
2023-01-11T18:56:43.952Z,67.43
2023-01-11T18:59:10.215Z,66.56
2023-01-11T19:01:54.029Z,67.95
2023-01-11T19:04:22.585Z,68.10
2023-01-11T19:06:48.849Z,68.57
2023-01-11T19:09:15.417Z,68.00
2023-01-11T19:11:41.674Z,68.51
2023-01-11T19:14:07.929Z,67.96
2023-01-11T19:16:34.184Z,68.65
2023-01-11T19:19:00.436Z,68.58
2023-01-11T19:21:26.675Z,69.04
2023-01-11T19:23:53.035Z,69.29
2023-01-11T19:26:19.312Z,69.07
2023-01-11T19:28:45.548Z,69.06
2023-01-11T19:31:11.860Z,69.82
2023-01-11T19:33:38.173Z,70.41
2023-01-11T19:36:04.427Z,70.61
2023-01-11T19:38:30.673Z,69.98
2023-01-11T19:40:56.933Z,70.01
2023-01-11T19:43:23.191Z,69.91
2023-01-11T19:45:49.498Z,70.02
2023-01-11T19:48:15.767Z,69.80
2023-01-11T19:50:42.035Z,69.69
2023-01-11T19:53:08.294Z,69.48
2023-01-11T19:55:34.556Z,69.69
2023-01-11T19:58:00.815Z,69.30
2023-01-11T20:00:27.065Z,69.78
2023-01-11T20:02:53.417Z,69.95
2023-01-11T20:05:19.747Z,69.89
2023-01-11T20:07:46.019Z,69.95
2023-01-11T20:10:12.297Z,70.10
2023-01-11T20:12:38.559Z,70.37
2023-01-11T20:15:04.804Z,69.86
2023-01-11T20:17:31.053Z,70.07
2023-01-11T20:19:57.302Z,69.86
2023-01-11T20:22:23.542Z,69.73
2023-01-11T20:24:49.800Z,69.97
2023-01-11T20:27:16.095Z,70.17
2023-01-11T20:29:42.361Z,70.11
2023-01-11T20:32:28.149Z,69.93
2023-01-11T20:34:54.859Z,69.70
2023-01-11T20:37:21.116Z,69.56
2023-01-11T20:39:47.460Z,69.75
2023-01-11T20:42:14.785Z,69.98
2023-01-11T20:44:41.030Z,69.95
2023-01-11T20:47:07.297Z,70.04
2023-01-11T20:49:33.558Z,71.00
2023-01-11T20:51:59.833Z,70.49
2023-01-11T20:54:26.103Z,70.87
2023-01-11T20:56:52.370Z,70.45
2023-01-11T20:59:18.618Z,70.49
2023-01-11T21:01:44.923Z,70.62
2023-01-11T21:04:11.206Z,70.59
2023-01-11T21:06:37.453Z,70.61
2023-01-11T21:09:03.731Z,70.67
2023-01-11T21:11:29.998Z,70.48
2023-01-11T21:16:22.505Z,69.82
2023-01-11T21:18:48.843Z,69.25
2023-01-11T21:21:15.102Z,69.21
2023-01-11T21:23:41.364Z,69.27
2023-01-11T21:26:07.609Z,68.63
2023-01-11T21:28:33.963Z,68.97
2023-01-11T21:31:00.266Z,69.36
2023-01-11T21:33:26.541Z,69.38
2023-01-11T21:35:52.822Z,69.85
2023-01-11T21:38:19.092Z,69.92
2023-01-11T21:40:45.343Z,70.39
2023-01-11T21:43:11.624Z,70.96
2023-01-11T21:45:37.864Z,70.70
2023-01-11T21:48:04.129Z,70.23
2023-01-11T21:50:30.409Z,69.39
2023-01-11T21:52:56.660Z,69.44
2023-01-11T21:55:22.933Z,69.03
2023-01-11T21:57:49.224Z,69.99
2023-01-11T22:00:15.498Z,70.16
2023-01-11T22:02:41.782Z,69.58
2023-01-11T22:05:08.041Z,69.41
2023-01-11T22:07:34.304Z,69.68
2023-01-11T22:10:04.948Z,69.40
2023-01-11T22:12:31.463Z,69.39
2023-01-11T22:14:57.710Z,68.75
2023-01-11T22:17:24.002Z,69.18
2023-01-11T22:19:50.295Z,69.23
2023-01-11T22:22:16.564Z,69.64
2023-01-11T22:24:42.805Z,70.03
2023-01-11T22:27:09.113Z,69.67
2023-01-11T22:29:35.384Z,70.58
2023-01-11T22:32:01.619Z,70.62
2023-01-11T22:34:27.884Z,70.47
2023-01-11T22:36:54.164Z,70.55
2023-01-11T22:39:20.452Z,70.72
2023-01-11T22:41:46.729Z,70.62
2023-01-11T22:44:12.997Z,69.94
2023-01-11T22:46:39.269Z,70.12
2023-01-11T22:49:05.561Z,69.98
2023-01-11T22:51:31.824Z,70.12
2023-01-11T22:53:58.084Z,69.62
2023-01-11T22:56:24.342Z,69.99
2023-01-11T22:58:50.624Z,70.66
2023-01-11T23:01:16.910Z,70.42
2023-01-11T23:03:43.223Z,70.42
2023-01-11T23:06:09.598Z,70.41
2023-01-11T23:08:35.873Z,70.13
2023-01-11T23:11:02.136Z,70.12
2023-01-11T23:13:28.398Z,69.84
2023-01-11T23:15:54.668Z,69.79
2023-01-11T23:18:20.946Z,69.52
2023-01-11T23:20:47.195Z,69.41
2023-01-11T23:23:13.456Z,69.83
2023-01-11T23:25:39.745Z,69.39
2023-01-11T23:28:06.009Z,69.42
2023-01-11T23:30:32.271Z,69.14
2023-01-11T23:32:58.556Z,69.01
2023-01-11T23:35:24.819Z,67.93
2023-01-11T23:37:51.086Z,67.53
2023-01-11T23:40:17.343Z,67.30
2023-01-11T23:42:43.595Z,66.26
2023-01-11T23:45:09.843Z,66.18
2023-01-11T23:47:36.105Z,65.92
2023-01-11T23:50:02.368Z,65.80
2023-01-11T23:52:28.654Z,65.93
2023-01-11T23:54:54.997Z,65.69
2023-01-11T23:57:21.237Z,64.75
2023-01-11T23:59:47.496Z,64.51
